createdAt,value
2018-07-16T00:01:37.941Z,1.52
2018-07-16T00:06:41.845Z,1.47
2018-07-16T00:11:45.714Z,1.42
2018-07-16T00:16:49.526Z,1.65
2018-07-16T00:21:53.395Z,1.77
2018-07-16T00:26:57.596Z,1.50
2018-07-16T00:32:01.422Z,1.65
2018-07-16T00:37:05.633Z,1.77
2018-07-16T00:42:09.486Z,2.00
2018-07-16T00:47:13.269Z,1.80
2018-07-16T00:52:17.084Z,1.50
2018-07-16T00:57:21.792Z,1.70
2018-07-16T01:02:25.478Z,1.70
2018-07-16T01:07:29.020Z,1.85
2018-07-16T01:12:33.128Z,1.98
2018-07-16T01:17:36.815Z,2.12
2018-07-16T01:22:40.503Z,1.45
2018-07-16T01:27:44.557Z,1.85
2018-07-16T01:32:48.077Z,1.82
2018-07-16T01:37:51.662Z,1.52
2018-07-16T01:42:55.306Z,1.70
2018-07-16T01:47:58.920Z,1.60
2018-07-16T01:53:02.542Z,1.80
2018-07-16T01:58:06.563Z,1.87
2018-07-16T02:03:10.395Z,1.80
2018-07-16T02:08:14.470Z,1.80
2018-07-16T02:13:18.110Z,2.02
2018-07-16T02:18:21.627Z,1.98
2018-07-16T02:23:25.150Z,1.60
2018-07-16T02:28:28.793Z,1.47
2018-07-16T02:33:32.616Z,2.17
2018-07-16T02:38:36.495Z,2.12
2018-07-16T02:43:40.485Z,1.92
2018-07-16T02:48:44.058Z,1.92
2018-07-16T02:53:47.614Z,2.42
2018-07-16T02:58:51.214Z,1.90
2018-07-16T03:03:54.859Z,2.02
2018-07-16T03:08:58.651Z,1.90
2018-07-16T03:14:02.142Z,2.10
2018-07-16T03:19:05.926Z,1.80
2018-07-16T03:24:09.473Z,1.90
2018-07-16T03:29:12.962Z,1.72
2018-07-16T03:34:16.990Z,2.07
2018-07-16T03:39:21.170Z,1.77
2018-07-16T03:44:24.670Z,1.95
2018-07-16T03:49:28.253Z,2.27
2018-07-16T03:54:31.960Z,1.90
2018-07-16T03:59:35.459Z,2.00
2018-07-16T04:04:39.026Z,1.98
2018-07-16T04:09:42.638Z,2.10
2018-07-16T04:14:46.205Z,2.00
2018-07-16T04:19:49.765Z,1.87
2018-07-16T04:24:53.786Z,2.37
2018-07-16T04:29:57.777Z,2.30
2018-07-16T04:35:02.820Z,2.33
2018-07-16T04:40:08.158Z,2.60
2018-07-16T04:45:11.994Z,3.10
2018-07-16T04:50:15.476Z,2.60
2018-07-16T04:55:19.054Z,2.47
2018-07-16T05:00:23.263Z,2.90
2018-07-16T05:05:26.970Z,2.70
2018-07-16T05:10:30.578Z,2.95
2018-07-16T05:15:34.117Z,3.40
2018-07-16T05:20:37.593Z,2.77
2018-07-16T05:25:41.226Z,2.90
2018-07-16T05:30:45.100Z,2.98
2018-07-16T05:35:48.622Z,2.80
2018-07-16T05:40:52.181Z,2.72
2018-07-16T05:45:55.678Z,2.98
2018-07-16T05:50:59.230Z,2.47
2018-07-16T05:56:02.854Z,2.75
2018-07-16T06:01:06.763Z,2.55
2018-07-16T06:06:10.759Z,2.17
2018-07-16T06:11:15.362Z,2.52
2018-07-16T06:16:19.115Z,2.22
2018-07-16T06:21:22.837Z,2.80
2018-07-16T06:26:27.011Z,2.35
2018-07-16T06:31:30.635Z,2.20
2018-07-16T06:36:34.476Z,1.95
2018-07-16T06:41:38.066Z,4.53
2018-07-16T06:46:41.615Z,1.70
2018-07-16T06:51:45.827Z,1.87
2018-07-16T06:56:49.512Z,2.15
2018-07-16T07:01:53.016Z,2.00
2018-07-16T07:06:56.765Z,1.62
2018-07-16T07:12:00.286Z,1.73
2018-07-16T07:17:03.793Z,1.65
2018-07-16T07:22:08.301Z,1.87
2018-07-16T07:27:11.902Z,1.60
2018-07-16T07:32:15.842Z,1.80
2018-07-16T07:37:19.950Z,1.90
2018-07-16T07:42:24.050Z,1.85
2018-07-16T07:47:28.459Z,1.42
2018-07-16T07:52:32.084Z,1.70
2018-07-16T07:57:35.942Z,1.60
2018-07-16T08:02:39.531Z,1.60
2018-07-16T08:07:43.643Z,1.70
2018-07-16T08:12:47.177Z,1.57
2018-07-16T08:17:50.878Z,1.92
2018-07-16T08:22:54.377Z,1.30
2018-07-16T08:27:58.117Z,1.40
2018-07-16T08:33:01.753Z,1.67
2018-07-16T08:38:05.864Z,1.30
2018-07-16T08:43:10.306Z,1.17
2018-07-16T08:48:13.802Z,1.30
2018-07-16T08:53:17.581Z,1.22
2018-07-16T08:58:21.769Z,1.52
2018-07-16T09:03:25.270Z,1.80
2018-07-16T09:08:28.871Z,1.40
2018-07-16T09:13:32.691Z,1.50
2018-07-16T09:18:36.169Z,1.50
2018-07-16T09:23:40.095Z,1.40
2018-07-16T09:28:43.697Z,1.20
2018-07-16T09:33:48.158Z,1.30
2018-07-16T09:38:52.365Z,1.40
2018-07-16T09:43:56.417Z,1.32
2018-07-16T09:49:00.282Z,1.37
2018-07-16T09:54:03.925Z,1.37
2018-07-16T09:59:08.474Z,1.30
2018-07-16T10:04:13.182Z,1.37
2018-07-16T10:09:16.859Z,1.20
2018-07-16T10:14:21.193Z,1.27
2018-07-16T10:19:25.175Z,1.20
2018-07-16T10:24:29.161Z,1.32
2018-07-16T10:29:34.408Z,1.40
2018-07-16T10:34:38.589Z,1.50
2018-07-16T10:39:42.576Z,1.40
2018-07-16T10:44:47.063Z,1.35
2018-07-16T10:49:51.415Z,1.52
2018-07-16T10:54:55.778Z,1.50
2018-07-16T11:00:05.493Z,1.30
2018-07-16T11:05:09.528Z,1.52
2018-07-16T11:10:13.897Z,1.42
2018-07-16T11:15:18.103Z,1.57
2018-07-16T11:20:21.977Z,1.60
2018-07-16T11:25:25.476Z,1.43
2018-07-16T11:30:28.993Z,1.50
2018-07-16T11:35:33.288Z,1.47
2018-07-16T11:40:41.527Z,1.50
2018-07-16T11:45:46.486Z,1.70
2018-07-16T11:50:51.704Z,1.70
2018-07-16T11:55:55.672Z,1.60
2018-07-16T12:00:59.910Z,1.40
2018-07-16T12:06:08.046Z,1.50
2018-07-16T12:11:12.362Z,1.60
2018-07-16T12:16:16.495Z,1.50
2018-07-16T12:21:20.471Z,1.42
2018-07-16T12:26:24.624Z,1.40
2018-07-16T12:31:29.594Z,1.40
2018-07-16T12:36:33.577Z,1.12
2018-07-16T12:41:38.000Z,1.17
2018-07-16T12:46:43.074Z,1.12
2018-07-16T12:51:47.200Z,1.30
2018-07-16T12:56:51.523Z,1.40
2018-07-16T13:01:55.946Z,1.07
2018-07-16T13:07:00.618Z,1.07
2018-07-16T13:12:05.162Z,1.20
2018-07-16T13:17:09.307Z,1.00
2018-07-16T13:22:13.302Z,1.10
2018-07-16T13:27:16.920Z,1.30
2018-07-16T13:32:20.420Z,1.00
2018-07-16T13:37:24.231Z,1.10
2018-07-16T13:42:27.786Z,1.57
2018-07-16T13:47:31.352Z,1.15
2018-07-16T13:52:35.151Z,1.20
2018-07-16T13:57:39.161Z,1.27
2018-07-16T14:02:42.997Z,1.30
2018-07-16T14:07:47.328Z,1.33
2018-07-16T14:12:51.893Z,1.10
2018-07-16T14:17:55.475Z,0.98
2018-07-16T14:22:59.228Z,0.90
2018-07-16T14:28:03.375Z,0.90
2018-07-16T14:33:08.154Z,1.30
2018-07-16T14:38:12.847Z,1.10
2018-07-16T14:43:18.174Z,0.90
2018-07-16T14:48:23.396Z,0.90
2018-07-16T14:53:28.343Z,1.10
2018-07-16T14:58:33.276Z,1.05
2018-07-16T15:03:37.950Z,1.20
2018-07-16T15:08:42.677Z,0.95
2018-07-16T15:13:47.391Z,0.80
2018-07-16T15:18:51.362Z,0.93
2018-07-16T15:23:55.507Z,0.95
2018-07-16T15:29:00.170Z,1.12
2018-07-16T15:34:04.190Z,1.12
2018-07-16T15:39:08.998Z,1.20
2018-07-16T15:44:12.640Z,1.30
2018-07-16T15:49:17.631Z,1.20
2018-07-16T15:54:21.686Z,1.32
2018-07-16T15:59:26.572Z,1.32
2018-07-16T16:04:30.241Z,1.25
2018-07-16T16:09:34.953Z,1.10
2018-07-16T16:14:38.957Z,1.15
2018-07-16T16:19:42.798Z,1.50
2018-07-16T16:24:47.804Z,1.40
2018-07-16T16:29:51.786Z,1.72
2018-07-16T16:34:56.053Z,1.60
2018-07-16T16:45:10.348Z,1.22
2018-07-16T16:50:15.014Z,1.43
2018-07-16T16:55:20.833Z,1.20
2018-07-16T17:00:24.997Z,1.40
2018-07-16T17:05:29.370Z,1.37
2018-07-16T17:10:33.893Z,1.35
2018-07-16T17:15:38.431Z,1.30
2018-07-16T17:20:42.521Z,1.25
2018-07-16T17:25:47.055Z,1.22
2018-07-16T17:30:51.558Z,1.50
2018-07-16T17:35:56.496Z,1.45
2018-07-16T17:41:00.253Z,1.10
2018-07-16T17:46:04.730Z,1.20
2018-07-16T17:51:08.351Z,1.45
2018-07-16T17:56:12.912Z,1.30
2018-07-16T18:01:18.260Z,1.10
2018-07-16T18:06:22.409Z,1.17
2018-07-16T18:11:27.172Z,1.42
2018-07-16T18:16:32.487Z,1.30
2018-07-16T18:21:37.209Z,1.32
2018-07-16T18:26:41.370Z,1.27
2018-07-16T18:31:46.315Z,1.20
2018-07-16T18:36:50.908Z,1.00
2018-07-16T18:41:55.862Z,1.27
2018-07-16T18:47:01.175Z,1.20
2018-07-16T18:52:05.920Z,1.30
2018-07-16T18:57:09.911Z,1.50
2018-07-16T19:02:15.602Z,1.40
2018-07-16T19:07:22.755Z,1.30
2018-07-16T19:12:27.184Z,1.30
2018-07-16T19:17:31.903Z,1.27
2018-07-16T19:22:36.534Z,1.60
2018-07-16T19:27:41.610Z,1.40
2018-07-16T19:32:46.011Z,1.82
2018-07-16T19:37:50.638Z,4.83
2018-07-16T19:42:55.695Z,2.60
2018-07-16T19:48:00.351Z,1.87
2018-07-16T19:53:04.887Z,2.00
2018-07-16T19:58:08.691Z,1.92
2018-07-16T20:03:12.269Z,2.10
2018-07-16T20:08:16.065Z,1.80
2018-07-16T20:13:19.885Z,1.90
2018-07-16T20:18:23.526Z,1.70
2018-07-16T20:23:27.002Z,2.17
2018-07-16T20:28:30.571Z,1.70
2018-07-16T20:33:34.212Z,1.80
2018-07-16T20:38:39.236Z,2.00
2018-07-16T20:43:42.927Z,2.10
2018-07-16T20:48:46.434Z,2.20
2018-07-16T20:53:50.794Z,2.45
2018-07-16T20:58:54.448Z,2.02
2018-07-16T21:03:58.117Z,2.20
2018-07-16T21:09:02.282Z,2.50
2018-07-16T21:14:05.783Z,2.27
2018-07-16T21:19:09.701Z,2.45
2018-07-16T21:24:13.734Z,6.33
2018-07-16T21:29:18.255Z,2.30
2018-07-16T21:34:22.031Z,1.80
2018-07-16T21:39:25.885Z,1.80
2018-07-16T21:44:29.550Z,2.05
2018-07-16T21:49:33.080Z,2.10
2018-07-16T21:54:36.717Z,1.77
2018-07-16T21:59:40.362Z,2.10
2018-07-16T22:04:44.369Z,2.10
2018-07-16T22:09:48.003Z,2.30
2018-07-16T22:14:51.554Z,2.00
2018-07-16T22:19:55.040Z,2.08
2018-07-16T22:24:59.021Z,2.20
2018-07-16T22:30:04.106Z,2.30
2018-07-16T22:35:07.870Z,2.20
2018-07-16T22:40:11.407Z,2.35
2018-07-16T22:45:15.114Z,2.30
2018-07-16T22:50:19.573Z,2.97
2018-07-16T22:55:23.133Z,2.30
2018-07-16T23:00:26.703Z,2.15
2018-07-16T23:05:30.222Z,2.60
2018-07-16T23:10:33.744Z,2.50
2018-07-16T23:15:37.375Z,2.20
2018-07-16T23:20:40.947Z,2.42
2018-07-16T23:25:44.908Z,2.45
2018-07-16T23:30:48.639Z,2.50
2018-07-16T23:35:52.726Z,2.47
2018-07-16T23:40:56.478Z,2.70
2018-07-16T23:46:00.019Z,2.52
2018-07-16T23:51:03.850Z,2.87
2018-07-16T23:56:07.527Z,2.72
